Whirlpool 2-Mile Run & Walk

Overall Finish List

April 14, 2012


HFP Racing hfpracing.com/results

2-Mile Run

Place Name City Bib No Age Gender Age Group Total Time Pace
1 Jacob Elsea 56 21 M 1 18-29 14:12 7:06/M
2 Jarrod Bowman 59 14 M 1 0-17 14:29 7:15/M
3 Trevor Bowman 147 16 M 2 0-17 14:36 7:18/M
4 Zach Taulker 76 13 M 3 0-17 14:38 7:19/M
5 Jim Maiberger 68 54 M 1 50-59 15:06 7:33/M
6 Jenni Hanna 110 17 F 1 0-17 15:43 7:52/M
7 Molly Conlon 57 12 F 2 0-17 16:18 8:09/M
8 Chris Obenour 29 18 M 2 18-29 16:24 8:12/M
9 Randall Poe 120 34 M 1 30-39 16:56 8:28/M
10 Emma Prince 45 12 F 3 0-17 17:14 8:37/M
11 Lauren Smith 91 9 F 4 0-17 17:19 8:40/M
12 Dawn Hipsher Findlay OHIO 37 36 F 1 30-39 17:34 8:47/M
13 Kianna Kidd 84 24 F 1 18-29 17:39 8:50/M
14 Katie McDonald 79 37 F 2 30-39 17:42 8:51/M
15 Tait Metz 140 37 M 2 30-39 18:31 9:16/M
16 Jenna Powell 62 27 F 2 18-29 18:32 9:16/M
17 Sam Obenour 129 17 F 5 0-17 18:45 9:23/M
18 Michael Konwiczka 107 37 M 3 30-39 19:01 9:31/M
19 Steve Foster 108 42 M 1 40-49 19:01 9:31/M
20 Kevin Spradlin 83 43 M 2 40-49 19:05 9:33/M
21 Laura Metz 90 35 F 3 30-39 19:24 9:42/M
22 Bradley Corbin 17 16 M 4 0-17 19:55 9:58/M
23 Max Fountain 103 21 M 3 18-29 20:55 10:28/M
24 Travis Farson 146 20 M 4 18-29 21:17 10:39/M
25 Joddee Coldren 71 22 F 3 18-29 21:30 10:45/M
26 Jeremy Parinello 64 22 M 5 18-29 21:31 10:46/M
27 Tom Burdsall 145 62 M 1 60-99 21:49 10:55/M
28 Trisha Thompson 150 43 F 1 40-49 22:00 11:00/M
29 Kelli Robinson 81 31 F 4 30-39 22:15 11:08/M
30 Amy Brinkman 6 38 F 5 30-39 22:27 11:14/M
31 Brock Galloway 22 31 M 4 30-39 22:37 11:19/M
32 Carrie Corbin 24 34 F 6 30-39 22:44 11:22/M
33 Ann Brenneman 8 31 F 7 30-39 22:54 11:27/M
34 Patti Spence 118 33 F 8 30-39 23:19 11:40/M
35 Carol Young Findlay OHIO 23 47 F 2 40-49 23:29 11:45/M
36 Roger Sanchez 126 52 M 2 50-59 23:38 11:49/M
37 Stephanie Moore 48 12 F 6 0-17 25:53 12:57/M
38 Bob Bushong 15 66 M 2 60-99 27:22 13:41/M
39 Brad Bailey Findlay OHIO 16 22 M 6 18-29 27:59 14:00/M
40 Mike Kaser 50 46 M 3 40-49 28:14 14:07/M
41 Larry Young Findlay OHIO 89 61 M 3 60-99 32:40 16:20/M
42 Trisha Heacock 149 27 F 4 18-29 36:15 18:08/M
 

2-Mile Walk

Place Name City Bib No Age Gender Age Group Total Time Pace
1 Diane Cramner 43 51 F 1 50-59 24:57 12:29/M
2 Colleen Grossman 34 12 F 1 0-17 25:12 12:36/M
3 Robert Fletcher 123 11 M 1 0-17 25:17 12:39/M
4 Peggy Howard 119 56 F 2 50-59 25:25 12:43/M
5 Debra Latham 39 55 F 3 50-59 27:11 13:36/M
6 Steven Fletcher 137 10 M 2 0-17 28:12 14:06/M
7 Zachary Brenneman 152 31 M 1 30-39 28:13 14:07/M
8 John Richards 73 46 M 1 40-49 28:20 14:10/M
9 Shane Grossman 130 37 M 2 30-39 29:04 14:32/M
10 Matt Baker 100 15 M 3 0-17 29:40 14:50/M
11 Jeanne Parinello 61 54 F 4 50-59 29:48 14:54/M
12 Vi Martinez 151 61 F 1 60-99 29:54 14:57/M
13 Cassidy Baker 25 17 F 2 0-17 30:15 15:08/M
14 Lorri Dilgard 96 46 F 1 40-49 30:18 15:09/M
15 Robert Glick 124 47 M 2 40-49 30:28 15:14/M
16 Gary Smith 47 44 M 3 40-49 30:30 15:15/M
17 MacKenzie Dilgard 97 16 F 3 0-17 30:31 15:16/M
18 Ivy Hernandez 55 25 F 1 18-29 30:33 15:17/M
19 Christy Kisseberth 30 31 F 1 30-39 30:40 15:20/M
20 Letha Brumbaugh 92 47 F 2 40-49 30:40 15:20/M
21 Shelia Roberts 134 54 F 5 50-59 30:42 15:21/M
22 Heidi Hammond 53 41 F 3 40-49 30:43 15:22/M
23 Trinity Konwiczka 148 11 F 4 0-17 30:45 15:23/M
24 Julie Temple 74 43 F 4 40-49 30:51 15:26/M
25 Rockford Temple 125 53 M 1 50-59 30:52 15:26/M
26 Aliya Obenour 4 9 F 5 0-17 30:57 15:29/M
27 Cindy Brumbaugh 31 57 F 6 50-59 31:01 15:31/M
28 Elaine Newman 44 48 F 5 40-49 31:01 15:31/M
29 Andrea Baker 7 39 F 2 30-39 31:07 15:34/M
30 Randy Moore 121 41 M 4 40-49 31:10 15:35/M
31 Tara Fletcher 141 38 F 3 30-39 31:30 15:45/M
32 Brian Welly 21 28 M 1 18-29 31:49 15:55/M
33 Regina Littrell 122 51 F 7 50-59 31:49 15:55/M
34 Jason Fletcher 60 39 M 3 30-39 32:01 16:01/M
35 Shannon Wells 131 46 F 6 40-49 32:04 16:02/M
36 Katy Wells 80 14 F 6 0-17 32:04 16:02/M
37 JoAnna Loach 70 49 F 7 40-49 32:35 16:18/M
38 Patricia Prince 115 48 F 8 40-49 32:38 16:19/M
39 Kathy Purcell 77 56 F 8 50-59 32:59 16:30/M
40 Dale Purcell 35 60 M 1 60-99 33:00 16:30/M
41 Rosaline Tiell 127 59 F 9 50-59 34:03 17:02/M
42 Lisa Tiello 95 33 F 4 30-39 34:03 17:02/M
43 Sharon Cantrell 133 68 F 2 60-99 34:11 17:06/M
44 Joan Kisseberth 69 66 F 3 60-99 34:13 17:07/M
45 Melody Beaston 105 53 F 10 50-59 37:05 18:33/M
46 Olivia Smith 114 33 F 5 30-39 37:06 18:33/M
47 Evelyn Stiger 94 53 F 11 50-59 38:10 19:05/M
48 Nanette Raye 113 44 F 9 40-49 38:10 19:05/M
49 Michelle Obenour 109 44 F 10 40-49 38:14 19:07/M
50 Chester Stiger 52 53 M 2 50-59 38:14 19:07/M
51 Jennelle Hammer 63 27 F 2 18-29 39:48 19:54/M
52 Adriana Gonzalez 1 20 F 3 18-29 40:17 20:09/M
53 Ckaire Baldridge 32 24 F 4 18-29 40:17 20:09/M
54 Jillian LaFave 67 27 F 5 18-29 40:17 20:09/M
55 Kim Wright 86 25 F 6 18-29 40:48 20:24/M
56 Jerry Stauffer 65 32 M 4 30-39 40:48 20:24/M
57 Debra Hulbert 38 45 F 11 40-49 42:22 21:11/M
58 Arthur Freeman 10 51 M 3 50-59 42:25 21:13/M
59 Matt Fletcher 101 14 M 4 0-17 46:22 23:11/M
60 Teresa Snyder 142 38 F 6 30-39 46:22 23:11/M